Time;durP1;ratioP1;P1;durP2;ratioP2;P2;SDS_P1;SDS_P2;PMS_P1;PMS_P2;Temp;Humidity;BMP_temperature;BMP_pressure;BME280_temperature;BME280_humidity;BME280_pressure;Samples;Min_cycle;Max_cycle;Signal;HPM_P1;HPM_P2
2022/07/22 00:01:51;;;;;;;11.88;10.77;;;25.30;63.90;;;;;;4993568;28;20880;-67
2022/07/22 00:04:16;;;;;;;12.27;11.07;;;25.30;64.00;;;;;;4993501;28;20394;-66
2022/07/22 00:06:42;;;;;;;12.00;10.90;;;25.30;63.90;;;;;;4992919;28;20426;-66
2022/07/22 00:09:08;;;;;;;11.85;10.75;;;25.30;63.90;;;;;;4993471;28;20394;-66
2022/07/22 00:11:35;;;;;;;11.85;10.75;;;25.30;63.90;;;;;;4993223;28;20398;-65
2022/07/22 00:14:01;;;;;;;11.88;10.77;;;25.30;63.90;;;;;;4993133;28;20423;-66
2022/07/22 00:16:26;;;;;;;11.90;10.80;;;25.30;63.90;;;;;;4992927;28;20390;-65
2022/07/22 00:18:52;;;;;;;12.02;10.93;;;25.30;63.90;;;;;;4992955;28;20402;-65
2022/07/22 00:21:18;;;;;;;11.68;10.57;;;25.30;63.90;;;;;;4993139;28;20441;-65
2022/07/22 00:23:44;;;;;;;11.85;10.75;;;25.30;63.90;;;;;;4991885;28;20489;-69
2022/07/22 00:26:10;;;;;;;12.50;11.30;;;25.30;63.90;;;;;;4991711;28;20497;-65
2022/07/22 00:28:36;;;;;;;12.30;11.10;;;25.30;63.80;;;;;;4992576;28;20430;-66
2022/07/22 00:31:02;;;;;;;12.48;11.38;;;25.30;63.90;;;;;;4992996;28;20402;-66
2022/07/22 00:33:27;;;;;;;12.57;11.40;;;25.30;63.90;;;;;;4992832;28;20406;-66
2022/07/22 00:35:53;;;;;;;11.77;10.68;;;25.30;63.90;;;;;;4992940;28;20786;-65
2022/07/22 00:38:19;;;;;;;11.90;10.90;;;25.30;63.90;;;;;;4992843;28;20391;-66
2022/07/22 00:40:45;;;;;;;12.23;11.05;;;25.30;63.80;;;;;;4992254;28;20460;-66
2022/07/22 00:43:10;;;;;;;11.63;10.53;;;25.30;63.90;;;;;;4992857;28;20523;-65
2022/07/22 00:45:36;;;;;;;12.03;10.93;;;25.30;63.90;;;;;;4992662;28;20760;-66
2022/07/22 00:48:02;;;;;;;11.43;10.35;;;25.30;63.90;;;;;;4992705;28;20383;-66
2022/07/22 00:50:28;;;;;;;11.68;10.68;;;25.30;63.90;;;;;;4992531;28;20465;-66
2022/07/22 00:52:55;;;;;;;12.70;11.50;;;25.30;63.90;;;;;;4992200;28;20394;-65
2022/07/22 00:55:22;;;;;;;12.25;11.10;;;25.30;63.90;;;;;;4991868;28;20449;-65
2022/07/22 00:57:48;;;;;;;12.37;11.17;;;25.30;63.90;;;;;;4991239;28;20461;-65
2022/07/22 01:00:19;;;;;;;12.20;11.10;;;25.30;63.90;;;;;;4992555;28;20757;-65
2022/07/22 01:02:45;;;;;;;11.73;10.63;;;25.30;63.90;;;;;;4992028;28;20395;-66
2022/07/22 01:05:11;;;;;;;12.02;10.93;;;25.30;63.90;;;;;;4991143;28;20494;-65
2022/07/22 01:07:38;;;;;;;12.43;11.30;;;25.30;63.90;;;;;;4990941;28;20489;-65
2022/07/22 01:10:05;;;;;;;11.75;10.65;;;25.30;63.90;;;;;;4992344;28;20481;-65
2022/07/22 01:12:31;;;;;;;11.40;10.30;;;25.30;63.90;;;;;;4990703;28;20398;-66
2022/07/22 01:14:56;;;;;;;11.45;10.43;;;25.20;63.80;;;;;;4991951;28;20429;-65
2022/07/22 01:17:22;;;;;;;11.93;10.83;;;25.30;63.90;;;;;;4992204;28;20452;-65
2022/07/22 01:19:49;;;;;;;12.20;11.07;;;25.20;63.80;;;;;;4992130;28;20430;-66
2022/07/22 01:22:15;;;;;;;11.70;10.70;;;25.30;63.90;;;;;;4992208;28;20472;-65
2022/07/22 01:24:41;;;;;;;11.70;10.60;;;25.30;63.90;;;;;;4991663;28;20465;-65
2022/07/22 01:27:07;;;;;;;11.90;10.82;;;25.20;63.80;;;;;;4991115;28;20509;-65
2022/07/22 01:29:32;;;;;;;11.80;10.70;;;25.20;63.80;;;;;;4991964;28;20485;-65
2022/07/22 01:31:58;;;;;;;11.60;10.55;;;25.20;63.80;;;;;;4991832;28;20738;-66
2022/07/22 01:34:24;;;;;;;11.65;10.55;;;25.20;63.80;;;;;;4991887;28;20780;-66
2022/07/22 01:36:49;;;;;;;11.03;10.03;;;25.20;63.80;;;;;;4990266;28;20445;-65
2022/07/22 01:39:15;;;;;;;11.40;10.40;;;25.20;63.80;;;;;;4990859;28;20395;-66
2022/07/22 01:41:41;;;;;;;11.65;10.65;;;25.20;63.80;;;;;;4990695;28;20485;-65
2022/07/22 01:44:07;;;;;;;11.83;10.73;;;25.20;63.80;;;;;;4990442;28;20403;-65
2022/07/22 01:46:32;;;;;;;10.90;9.90;;;25.20;63.70;;;;;;4990076;28;20534;-65
2022/07/22 01:48:58;;;;;;;11.47;10.43;;;25.20;63.80;;;;;;4990264;28;20406;-65
2022/07/22 01:51:24;;;;;;;11.13;10.13;;;25.20;63.70;;;;;;4990654;28;20953;-65
2022/07/22 01:53:49;;;;;;;11.25;10.23;;;25.20;63.70;;;;;;4991682;28;20436;-65
2022/07/22 01:56:15;;;;;;;11.03;9.97;;;25.20;63.70;;;;;;4990705;28;20440;-66
2022/07/22 01:58:41;;;;;;;11.68;10.48;;;25.20;63.70;;;;;;4990125;28;20401;-66
2022/07/22 02:01:07;;;;;;;11.32;10.25;;;25.20;63.70;;;;;;4990534;28;20991;-66
2022/07/22 02:03:33;;;;;;;10.75;9.77;;;25.20;63.70;;;;;;4991776;28;20390;-66
2022/07/22 02:05:59;;;;;;;11.20;10.20;;;25.20;63.70;;;;;;4990504;28;20414;-66
2022/07/22 02:08:24;;;;;;;10.68;9.68;;;25.20;63.70;;;;;;4990440;28;20544;-66
2022/07/22 02:10:50;;;;;;;10.60;9.67;;;25.20;63.80;;;;;;4991255;28;20386;-68
2022/07/22 02:13:16;;;;;;;10.80;9.80;;;25.20;63.70;;;;;;4991187;28;20409;-66
2022/07/22 02:15:42;;;;;;;10.77;9.77;;;25.20;63.70;;;;;;4991467;28;20418;-66
2022/07/22 02:18:14;;;;;;;10.90;9.82;;;25.20;63.70;;;;;;4990413;28;20415;-68
2022/07/22 02:20:40;;;;;;;10.60;9.60;;;25.20;63.80;;;;;;4991093;28;20386;-66
2022/07/22 02:23:06;;;;;;;10.55;9.60;;;25.20;63.70;;;;;;4991661;28;20394;-65
2022/07/22 02:25:33;;;;;;;11.55;10.48;;;25.20;63.70;;;;;;4991537;28;20390;-66
2022/07/22 02:27:59;;;;;;;10.75;9.77;;;25.20;63.70;;;;;;4990229;28;20446;-68
2022/07/22 02:30:24;;;;;;;10.40;9.50;;;25.20;63.70;;;;;;4991519;28;20517;-67
2022/07/22 02:32:50;;;;;;;10.98;10.02;;;25.20;63.70;;;;;;4991017;28;20506;-65
2022/07/22 02:35:15;;;;;;;10.68;9.68;;;25.20;63.70;;;;;;4990356;28;20418;-66
2022/07/22 02:37:41;;;;;;;11.10;10.10;;;25.20;63.70;;;;;;4991957;28;20398;-65
2022/07/22 02:40:08;;;;;;;10.87;9.87;;;25.20;63.70;;;;;;4995056;28;20490;-66
2022/07/22 02:42:34;;;;;;;10.50;9.50;;;25.20;63.70;;;;;;4994923;28;20881;-66
2022/07/22 02:44:59;;;;;;;10.90;9.90;;;25.20;63.70;;;;;;4994553;28;20449;-67
2022/07/22 02:47:25;;;;;;;10.63;9.63;;;25.10;63.60;;;;;;4994639;28;20485;-66
2022/07/22 02:49:51;;;;;;;10.87;9.90;;;25.10;63.60;;;;;;4994896;28;20389;-65
2022/07/22 02:52:17;;;;;;;10.93;9.93;;;25.10;63.60;;;;;;4994803;28;20468;-66
2022/07/22 02:54:43;;;;;;;10.32;9.32;;;25.10;63.60;;;;;;4992942;28;20509;-66
2022/07/22 02:57:09;;;;;;;10.57;9.68;;;25.20;63.70;;;;;;4994695;28;20481;-66
2022/07/22 02:59:34;;;;;;;10.57;9.57;;;25.10;63.60;;;;;;4994620;28;20399;-66
2022/07/22 03:02:00;;;;;;;10.25;9.35;;;25.10;63.60;;;;;;4994605;28;20390;-65
2022/07/22 03:04:26;;;;;;;10.47;9.47;;;25.10;63.60;;;;;;4994601;28;20403;-69
2022/07/22 03:06:51;;;;;;;11.35;10.25;;;25.10;63.50;;;;;;4992741;28;20749;-65
2022/07/22 03:09:17;;;;;;;11.25;10.07;;;25.10;63.70;;;;;;4994534;28;20438;-65
2022/07/22 03:11:43;;;;;;;10.80;9.77;;;25.20;65.20;;;;;;4994243;28;20447;-66
2022/07/22 03:14:08;;;;;;;11.93;10.65;;;25.20;65.00;;;;;;4994361;28;20406;-65
2022/07/22 03:16:34;;;;;;;11.30;10.15;;;25.20;66.00;;;;;;4994437;28;20805;-65
2022/07/22 03:19:00;;;;;;;13.30;11.00;;;25.20;65.20;;;;;;4993880;28;20885;-65
2022/07/22 03:21:25;;;;;;;12.55;10.75;;;25.30;67.30;;;;;;4994289;28;20815;-65
2022/07/22 03:23:54;;;;;;;11.80;10.60;;;25.30;66.90;;;;;;4992964;28;20415;-65
2022/07/22 03:26:23;;;;;;;11.30;10.20;;;25.30;66.70;;;;;;4994148;28;20465;-66
2022/07/22 03:28:49;;;;;;;11.80;10.60;;;25.30;67.30;;;;;;4992470;28;20398;-65
2022/07/22 03:31:15;;;;;;;12.82;9.90;;;25.40;67.50;;;;;;4994093;28;20403;-65
2022/07/22 03:33:41;;;;;;;11.57;10.40;;;25.40;67.80;;;;;;4994048;28;20428;-66
2022/07/22 03:36:07;;;;;;;13.23;10.55;;;25.50;67.80;;;;;;4994010;28;20406;-65
2022/07/22 03:38:34;;;;;;;13.35;10.48;;;25.50;68.10;;;;;;4993930;28;20387;-65
2022/07/22 03:40:59;;;;;;;12.18;9.70;;;25.50;68.70;;;;;;4993599;28;20402;-65
2022/07/22 03:43:25;;;;;;;11.90;9.95;;;25.50;67.90;;;;;;4993864;28;20499;-65
2022/07/22 03:45:51;;;;;;;13.10;9.60;;;25.50;67.20;;;;;;4993980;28;20419;-65
2022/07/22 03:48:16;;;;;;;10.87;9.77;;;25.50;67.60;;;;;;4994003;28;20530;-69
2022/07/22 03:50:42;;;;;;;11.15;9.95;;;25.50;67.20;;;;;;4994418;28;20401;-69
2022/07/22 03:53:08;;;;;;;10.85;9.70;;;25.50;66.80;;;;;;4995470;28;20391;-65
2022/07/22 03:55:33;;;;;;;10.93;9.33;;;25.60;66.80;;;;;;4993592;28;20457;-68
2022/07/22 03:57:59;;;;;;;10.90;9.80;;;25.60;66.70;;;;;;4994024;28;20493;-66
2022/07/22 04:00:25;;;;;;;10.32;9.32;;;25.60;66.30;;;;;;4993523;28;20424;-65
2022/07/22 04:02:50;;;;;;;10.70;9.70;;;25.50;66.30;;;;;;4992910;28;20398;-65
2022/07/22 04:05:16;;;;;;;10.40;9.40;;;25.50;66.00;;;;;;4994117;28;20442;-65
2022/07/22 04:07:42;;;;;;;12.23;10.37;;;25.50;65.80;;;;;;4993375;28;20410;-65
2022/07/22 04:10:08;;;;;;;13.60;10.50;;;25.40;65.60;;;;;;4993473;28;20398;-65
2022/07/22 04:12:38;;;;;;;15.45;11.40;;;25.40;64.80;;;;;;4993370;28;20753;-65
2022/07/22 04:15:06;;;;;;;13.57;11.63;;;25.30;64.30;;;;;;4992684;28;20509;-66
2022/07/22 04:17:32;;;;;;;17.23;12.15;;;25.30;64.30;;;;;;4991685;28;20399;-66
2022/07/22 04:19:59;;;;;;;17.77;11.55;;;25.30;64.20;;;;;;4991732;28;20738;-65
2022/07/22 04:22:24;;;;;;;16.70;11.45;;;25.30;64.30;;;;;;4993165;28;20918;-65
2022/07/22 04:24:50;;;;;;;12.80;11.20;;;25.30;64.30;;;;;;4992712;28;20390;-65
2022/07/22 04:27:16;;;;;;;14.85;11.00;;;25.20;64.40;;;;;;4992774;28;20450;-65
2022/07/22 04:29:41;;;;;;;11.77;10.55;;;25.30;64.40;;;;;;4992982;28;20409;-65
2022/07/22 04:32:07;;;;;;;11.37;10.27;;;25.30;64.50;;;;;;4991762;28;20814;-65
2022/07/22 04:34:33;;;;;;;11.93;9.93;;;25.30;64.50;;;;;;4991590;28;20423;-67
2022/07/22 04:36:58;;;;;;;12.43;10.15;;;25.30;64.40;;;;;;4992505;28;20394;-65
2022/07/22 04:39:24;;;;;;;11.43;9.83;;;25.30;64.40;;;;;;4992846;28;20446;-66
2022/07/22 04:41:49;;;;;;;10.45;9.32;;;25.30;64.30;;;;;;4992816;28;20445;-65
2022/07/22 04:44:15;;;;;;;11.00;9.90;;;25.20;64.30;;;;;;4991584;28;20473;-65
2022/07/22 04:46:41;;;;;;;11.03;9.80;;;25.20;64.30;;;;;;4992638;28;20860;-65
2022/07/22 04:49:07;;;;;;;10.07;9.02;;;25.20;64.30;;;;;;4992183;28;20490;-65
2022/07/22 04:51:32;;;;;;;10.13;9.13;;;25.20;64.20;;;;;;4992426;28;20422;-65
2022/07/22 04:53:58;;;;;;;10.90;9.70;;;25.20;64.10;;;;;;4991282;28;20453;-66
2022/07/22 04:56:23;;;;;;;9.93;9.03;;;25.20;64.10;;;;;;4992522;28;20845;-65
2022/07/22 04:58:49;;;;;;;10.50;9.40;;;25.20;64.10;;;;;;4990795;28;20390;-65
2022/07/22 05:01:15;;;;;;;10.17;9.17;;;25.20;64.70;;;;;;4991102;28;20402;-65
2022/07/22 05:03:41;;;;;;;10.47;9.37;;;25.20;64.00;;;;;;4991143;28;20398;-65
2022/07/22 05:06:07;;;;;;;10.45;9.32;;;25.20;64.00;;;;;;4992385;28;20387;-65
2022/07/22 05:08:33;;;;;;;10.35;9.30;;;25.20;64.00;;;;;;4992321;28;20390;-65
2022/07/22 05:10:59;;;;;;;10.18;9.18;;;25.20;63.90;;;;;;4991857;28;20940;-65
2022/07/22 05:13:25;;;;;;;10.07;9.15;;;25.20;63.70;;;;;;4991024;28;20618;-66
2022/07/22 05:15:50;;;;;;;10.05;9.10;;;25.20;63.80;;;;;;4992260;28;20401;-65
2022/07/22 05:18:16;;;;;;;9.70;8.80;;;25.20;64.00;;;;;;4992230;28;20414;-65
2022/07/22 05:20:42;;;;;;;9.40;8.50;;;25.20;63.90;;;;;;4992058;28;20799;-65
2022/07/22 05:23:08;;;;;;;9.70;8.80;;;25.20;63.90;;;;;;4991759;28;20405;-65
2022/07/22 05:25:33;;;;;;;11.00;8.50;;;25.20;63.60;;;;;;4992060;28;20937;-65
2022/07/22 05:27:59;;;;;;;9.07;8.20;;;25.20;63.90;;;;;;4992009;28;20793;-65
2022/07/22 05:30:25;;;;;;;8.90;8.00;;;25.20;63.90;;;;;;4990729;28;20403;-65
2022/07/22 05:32:52;;;;;;;9.60;8.70;;;25.20;63.80;;;;;;4991711;28;20387;-65
2022/07/22 05:35:19;;;;;;;9.52;8.55;;;25.20;63.80;;;;;;4992041;28;20448;-65
2022/07/22 05:37:44;;;;;;;9.68;8.68;;;25.20;63.80;;;;;;4991990;28;20414;-65
2022/07/22 05:40:11;;;;;;;9.20;8.30;;;25.20;63.70;;;;;;4992043;28;20437;-65
2022/07/22 05:42:36;;;;;;;8.82;8.02;;;25.20;63.80;;;;;;4991889;28;20393;-65
2022/07/22 05:45:03;;;;;;;9.00;8.10;;;25.20;63.70;;;;;;4991460;28;20481;-65
2022/07/22 05:47:28;;;;;;;8.93;8.13;;;25.20;63.70;;;;;;4990581;28;20445;-65
2022/07/22 05:49:54;;;;;;;8.60;7.80;;;25.20;63.60;;;;;;4991900;28;20458;-65
2022/07/22 05:52:20;;;;;;;8.98;8.15;;;25.20;63.80;;;;;;4991929;28;20877;-65
2022/07/22 05:54:45;;;;;;;8.90;8.00;;;25.20;63.70;;;;;;4991775;28;20502;-65
2022/07/22 05:57:11;;;;;;;9.10;8.20;;;25.20;63.70;;;;;;4991325;28;20433;-65
2022/07/22 05:59:37;;;;;;;9.15;8.35;;;25.20;63.60;;;;;;4990481;28;20762;-65
2022/07/22 06:02:03;;;;;;;8.80;8.00;;;25.20;63.60;;;;;;4991727;28;20386;-65
2022/07/22 06:04:29;;;;;;;8.50;7.70;;;25.20;63.60;;;;;;4991702;28;20425;-65
2022/07/22 06:06:54;;;;;;;9.07;8.27;;;25.20;63.70;;;;;;4991259;28;20429;-65
2022/07/22 06:09:20;;;;;;;8.23;7.50;;;25.20;63.60;;;;;;4991705;28;20445;-65
2022/07/22 06:11:46;;;;;;;8.80;8.00;;;25.20;63.60;;;;;;4991661;28;20433;-65
2022/07/22 06:14:11;;;;;;;8.90;8.10;;;25.20;63.60;;;;;;4994561;28;20476;-65
2022/07/22 06:16:37;;;;;;;8.60;7.80;;;25.20;63.70;;;;;;4995447;28;20948;-65
2022/07/22 06:19:03;;;;;;;8.10;7.40;;;25.20;63.60;;;;;;4994901;28;20386;-65
2022/07/22 06:21:28;;;;;;;8.65;7.85;;;25.20;63.60;;;;;;4995340;28;20440;-65
2022/07/22 06:23:54;;;;;;;8.65;7.85;;;25.20;63.50;;;;;;4995353;28;20869;-65
2022/07/22 06:26:20;;;;;;;8.70;7.80;;;25.20;63.50;;;;;;4995114;28;20440;-65
2022/07/22 06:28:45;;;;;;;8.13;7.43;;;25.20;63.50;;;;;;4995135;28;20445;-66
2022/07/22 06:31:11;;;;;;;8.65;7.85;;;25.20;63.50;;;;;;4993502;28;20394;-65
2022/07/22 06:33:37;;;;;;;8.97;8.17;;;25.20;63.40;;;;;;4995060;28;20394;-65
2022/07/22 06:36:03;;;;;;;8.00;7.30;;;25.30;63.50;;;;;;4995169;28;20489;-65
2022/07/22 06:38:29;;;;;;;8.38;7.57;;;25.30;63.60;;;;;;4995014;28;20385;-65
2022/07/22 06:40:55;;;;;;;8.60;7.80;;;25.20;63.40;;;;;;4994652;28;20481;-65
2022/07/22 06:43:20;;;;;;;8.50;7.70;;;25.30;63.50;;;;;;4993726;28;20398;-65
2022/07/22 06:45:46;;;;;;;8.85;8.05;;;25.30;63.50;;;;;;4994883;28;20398;-65
2022/07/22 06:48:12;;;;;;;8.07;7.37;;;25.30;63.50;;;;;;4994865;28;20400;-65
2022/07/22 06:50:37;;;;;;;8.73;7.93;;;25.30;63.40;;;;;;4994650;28;20916;-65
2022/07/22 06:53:03;;;;;;;8.45;7.75;;;25.30;63.40;;;;;;4994377;28;20477;-65
2022/07/22 06:55:29;;;;;;;8.50;7.70;;;25.30;63.30;;;;;;4993336;28;20433;-65
2022/07/22 06:57:54;;;;;;;8.18;7.47;;;25.30;63.30;;;;;;4994709;28;20390;-65
2022/07/22 07:00:20;;;;;;;8.53;7.73;;;25.30;63.30;;;;;;4994354;28;20972;-65
2022/07/22 07:02:47;;;;;;;8.30;7.60;;;25.30;63.30;;;;;;4994566;28;20391;-65
2022/07/22 07:05:12;;;;;;;7.80;7.10;;;25.30;63.90;;;;;;4994139;28;20452;-65
2022/07/22 07:07:38;;;;;;;8.40;7.60;;;25.30;63.30;;;;;;4994439;28;20394;-65
2022/07/22 07:10:04;;;;;;;8.15;7.45;;;25.30;63.30;;;;;;4994497;28;20390;-65
2022/07/22 07:12:30;;;;;;;8.43;7.63;;;25.30;63.50;;;;;;4993884;28;20402;-65
2022/07/22 07:14:55;;;;;;;8.20;7.40;;;25.30;63.20;;;;;;4994158;28;20757;-65
2022/07/22 07:17:21;;;;;;;8.07;7.38;;;25.30;63.30;;;;;;4994025;28;20927;-65
2022/07/22 07:19:46;;;;;;;7.87;7.20;;;25.30;63.20;;;;;;4993026;28;20451;-65
2022/07/22 07:22:12;;;;;;;7.77;6.97;;;25.30;63.20;;;;;;4994295;28;20390;-65
2022/07/22 07:24:38;;;;;;;8.32;7.63;;;25.30;63.20;;;;;;4991688;28;20427;-65
2022/07/22 07:27:03;;;;;;;7.60;6.90;;;25.30;63.10;;;;;;4993539;28;21010;-65
2022/07/22 07:29:29;;;;;;;8.13;7.43;;;25.30;63.10;;;;;;4994168;28;20398;-66
2022/07/22 07:31:54;;;;;;;7.77;7.03;;;25.30;63.10;;;;;;4992859;28;20395;-65
2022/07/22 07:34:20;;;;;;;8.40;7.60;;;25.30;63.00;;;;;;4992802;28;20928;-65
2022/07/22 07:36:46;;;;;;;8.00;7.30;;;25.30;63.00;;;;;;4993954;28;20487;-65
2022/07/22 07:39:11;;;;;;;8.20;7.40;;;25.30;63.10;;;;;;4992498;28;20382;-65
2022/07/22 07:41:37;;;;;;;7.72;7.03;;;25.30;63.20;;;;;;4993794;28;20414;-65
2022/07/22 07:44:03;;;;;;;7.97;7.28;;;25.30;63.00;;;;;;4993669;28;20414;-65
2022/07/22 07:46:28;;;;;;;7.80;7.10;;;25.30;63.10;;;;;;4993526;28;20448;-65
2022/07/22 07:48:54;;;;;;;8.20;7.40;;;25.30;63.20;;;;;;4992292;28;20893;-65
2022/07/22 07:51:19;;;;;;;8.00;7.30;;;25.30;63.20;;;;;;4993500;28;20391;-65
2022/07/22 07:53:45;;;;;;;7.80;7.10;;;25.30;63.20;;;;;;4993335;28;20428;-65
2022/07/22 07:56:11;;;;;;;8.27;7.47;;;25.30;63.10;;;;;;4993660;28;20895;-65
2022/07/22 07:58:37;;;;;;;8.37;7.57;;;25.30;63.10;;;;;;4993579;28;20386;-65
2022/07/22 08:01:02;;;;;;;7.55;6.85;;;25.30;63.00;;;;;;4992880;28;20391;-65
2022/07/22 08:03:28;;;;;;;7.90;7.20;;;25.30;63.10;;;;;;4992295;28;20394;-65
2022/07/22 08:05:54;;;;;;;8.10;7.40;;;25.30;63.00;;;;;;4992238;28;20537;-65
2022/07/22 08:08:20;;;;;;;8.07;7.38;;;25.30;63.00;;;;;;4992158;28;20750;-65
2022/07/22 08:10:46;;;;;;;8.50;7.70;;;25.30;63.00;;;;;;4993264;28;20781;-65
2022/07/22 08:13:12;;;;;;;7.90;7.20;;;25.30;62.90;;;;;;4991601;28;20766;-65
2022/07/22 08:15:37;;;;;;;8.07;7.28;;;25.30;63.00;;;;;;4991878;28;20430;-65
2022/07/22 08:18:04;;;;;;;7.83;7.10;;;25.30;63.00;;;;;;4991704;28;20406;-65
2022/07/22 08:20:30;;;;;;;7.93;7.22;;;25.40;63.00;;;;;;4991907;28;20422;-65
2022/07/22 08:22:56;;;;;;;8.00;7.30;;;25.40;63.00;;;;;;4993028;28;20426;-65
2022/07/22 08:25:22;;;;;;;7.68;6.97;;;25.40;63.00;;;;;;4991599;28;20399;-65
2022/07/22 08:27:48;;;;;;;7.53;6.85;;;25.40;63.00;;;;;;4992944;28;20904;-65
2022/07/22 08:30:15;;;;;;;7.63;6.93;;;25.40;63.00;;;;;;4993036;28;20434;-65
2022/07/22 08:32:40;;;;;;;7.72;7.03;;;25.40;63.00;;;;;;4992936;28;20481;-65
2022/07/22 08:35:07;;;;;;;7.75;7.03;;;25.40;62.90;;;;;;4992286;28;20861;-65
2022/07/22 08:37:33;;;;;;;8.15;7.45;;;25.40;62.90;;;;;;4992542;28;20403;-66
2022/07/22 08:39:58;;;;;;;7.78;7.07;;;25.40;62.90;;;;;;4992893;28;20399;-65
2022/07/22 08:42:25;;;;;;;7.88;7.18;;;25.40;62.90;;;;;;4992611;28;20726;-65
2022/07/22 08:44:52;;;;;;;7.40;6.80;;;25.40;62.90;;;;;;4991586;28;20426;-65
2022/07/22 08:47:22;;;;;;;7.95;7.25;;;25.40;62.90;;;;;;4992294;28;20880;-65
2022/07/22 08:49:47;;;;;;;7.78;7.18;;;25.40;62.80;;;;;;4991359;28;20750;-65
2022/07/22 08:52:13;;;;;;;8.13;7.43;;;25.40;62.80;;;;;;4991392;28;20947;-65
2022/07/22 08:54:39;;;;;;;8.10;7.40;;;25.40;62.80;;;;;;4992432;28;20446;-66
2022/07/22 08:57:04;;;;;;;8.23;7.53;;;25.40;62.70;;;;;;4992005;28;20880;-65
2022/07/22 08:59:30;;;;;;;8.23;7.50;;;25.40;62.80;;;;;;4992334;28;20401;-65
2022/07/22 09:02:09;;;;;;;8.10;7.40;;;25.40;62.80;;;;;;4989141;28;20398;-65
2022/07/22 09:04:57;;;;;;;8.02;7.32;;;25.40;62.70;;;;;;4990333;28;20403;-65
2022/07/22 09:07:43;;;;;;;8.10;7.38;;;25.40;62.60;;;;;;4992070;28;20485;-65
2022/07/22 09:10:12;;;;;;;7.78;7.10;;;25.40;62.70;;;;;;4991088;28;20473;-65
2022/07/22 09:12:55;;;;;;;7.85;7.15;;;25.50;62.80;;;;;;4992279;28;20952;-65
2022/07/22 09:15:41;;;;;;;7.78;7.07;;;25.40;62.60;;;;;;4991642;28;20509;-65
2022/07/22 09:18:09;;;;;;;8.00;7.30;;;25.50;62.60;;;;;;4992258;28;20481;-65
2022/07/22 09:20:36;;;;;;;7.53;6.90;;;25.50;62.70;;;;;;4990787;28;20407;-65
2022/07/22 09:23:09;;;;;;;8.07;7.38;;;25.50;62.60;;;;;;4990631;28;20398;-65
2022/07/22 09:25:37;;;;;;;7.83;7.13;;;25.50;62.70;;;;;;4992080;28;20426;-66
2022/07/22 09:28:05;;;;;;;8.10;7.40;;;25.50;62.40;;;;;;4990513;28;20469;-65
2022/07/22 09:30:35;;;;;;;8.10;7.40;;;25.40;62.50;;;;;;4990818;28;20410;-67
2022/07/22 09:33:00;;;;;;;8.20;7.45;;;25.50;62.40;;;;;;4990569;28;20394;-65
2022/07/22 09:35:27;;;;;;;8.18;7.47;;;25.50;62.50;;;;;;4991505;28;20429;-65
2022/07/22 09:37:55;;;;;;;8.27;7.57;;;25.50;62.50;;;;;;4990803;28;20390;-65
2022/07/22 09:40:29;;;;;;;8.30;7.60;;;25.50;62.50;;;;;;4991960;28;20934;-65
2022/07/22 09:42:59;;;;;;;8.10;7.40;;;25.50;62.40;;;;;;4991864;28;20796;-65
2022/07/22 09:45:28;;;;;;;8.00;7.30;;;25.50;62.40;;;;;;4991364;28;20405;-65
2022/07/22 09:47:55;;;;;;;8.40;7.70;;;25.50;62.40;;;;;;4992909;28;20402;-65
2022/07/22 09:50:22;;;;;;;7.93;7.22;;;25.50;62.40;;;;;;4996011;28;20386;-65
2022/07/22 09:52:50;;;;;;;8.30;7.60;;;25.50;62.40;;;;;;4995893;28;20398;-65
2022/07/22 09:55:18;;;;;;;8.30;7.60;;;25.50;62.20;;;;;;4995430;28;20418;-65
2022/07/22 09:57:44;;;;;;;8.15;7.40;;;25.50;62.20;;;;;;4994621;28;20421;-65
2022/07/22 10:00:11;;;;;;;8.02;7.32;;;25.50;62.20;;;;;;4995773;28;20440;-65
2022/07/22 10:02:58;;;;;;;8.13;7.32;;;25.50;62.30;;;;;;4994399;28;20390;-65
2022/07/22 10:05:29;;;;;;;8.35;7.65;;;25.50;62.20;;;;;;4993761;28;20391;-65
2022/07/22 10:07:56;;;;;;;8.50;7.80;;;25.50;62.30;;;;;;4995720;28;20406;-65
2022/07/22 10:10:24;;;;;;;8.23;7.43;;;25.50;62.20;;;;;;4995658;28;20753;-66
2022/07/22 10:12:52;;;;;;;8.75;7.93;;;25.50;62.30;;;;;;4995585;28;20399;-65
2022/07/22 10:15:18;;;;;;;9.38;8.38;;;25.50;63.00;;;;;;4995042;28;20418;-66
2022/07/22 10:17:48;;;;;;;9.90;9.00;;;25.50;64.20;;;;;;4995506;28;20394;-66
2022/07/22 10:20:20;;;;;;;9.27;8.38;;;25.60;64.80;;;;;;4995533;28;20453;-66
2022/07/22 10:23:00;;;;;;;9.43;8.52;;;25.60;64.60;;;;;;4993439;28;20441;-65
2022/07/22 10:25:29;;;;;;;9.00;8.10;;;25.60;64.30;;;;;;4991430;28;20417;-66
2022/07/22 10:28:04;;;;;;;9.05;8.15;;;25.70;64.10;;;;;;4994003;28;20417;-65
2022/07/22 10:30:31;;;;;;;8.43;7.63;;;25.60;63.20;;;;;;4992748;28;20437;-66
2022/07/22 10:33:07;;;;;;;8.52;7.63;;;25.60;63.00;;;;;;4993802;28;20406;-67
2022/07/22 10:35:36;;;;;;;9.18;7.65;;;25.60;62.60;;;;;;4993724;28;20454;-67
2022/07/22 10:38:05;;;;;;;8.20;7.40;;;25.60;62.40;;;;;;4991639;28;20737;-69
2022/07/22 10:40:50;;;;;;;8.50;7.60;;;25.60;62.70;;;;;;4993452;28;20402;-67
2022/07/22 10:43:18;;;;;;;8.70;7.90;;;25.60;62.80;;;;;;4992924;28;20385;-68
2022/07/22 10:45:49;;;;;;;8.75;7.95;;;25.60;62.30;;;;;;4992466;28;20398;-67
2022/07/22 10:48:21;;;;;;;8.75;7.95;;;25.60;62.50;;;;;;4992325;28;20477;-65
2022/07/22 10:51:08;;;;;;;8.60;7.70;;;25.60;62.40;;;;;;4994422;28;20430;-67
2022/07/22 10:53:52;;;;;;;8.30;7.60;;;25.70;62.40;;;;;;4992840;28;20403;-66
2022/07/22 10:56:33;;;;;;;8.48;7.78;;;25.60;62.50;;;;;;4994088;28;20497;-66
2022/07/22 10:59:10;;;;;;;8.80;7.90;;;25.60;62.20;;;;;;4993072;28;20777;-65
2022/07/22 11:01:38;;;;;;;8.57;7.77;;;25.60;62.40;;;;;;4992806;28;20593;-66
2022/07/22 11:04:15;;;;;;;8.30;7.50;;;25.60;62.50;;;;;;4989891;28;20418;-67
2022/07/22 11:06:41;;;;;;;8.35;7.45;;;25.70;62.50;;;;;;4991989;28;20406;-66
2022/07/22 11:09:10;;;;;;;8.23;7.50;;;25.70;62.40;;;;;;4991796;28;20429;-66
2022/07/22 11:11:38;;;;;;;8.20;7.40;;;25.70;62.50;;;;;;4992035;28;20434;-66
2022/07/22 11:14:14;;;;;;;8.63;7.82;;;25.60;62.70;;;;;;4994400;28;20407;-66
2022/07/22 11:16:40;;;;;;;8.95;8.15;;;25.70;62.50;;;;;;4994012;28;20452;-69
2022/07/22 11:19:06;;;;;;;8.73;7.93;;;25.70;62.70;;;;;;4994380;28;20379;-66
2022/07/22 11:21:33;;;;;;;8.93;7.97;;;25.70;62.80;;;;;;4993809;28;20403;-66
2022/07/22 11:24:02;;;;;;;10.27;8.23;;;25.70;63.10;;;;;;4992985;28;20745;-69
2022/07/22 11:26:39;;;;;;;12.50;8.67;;;25.70;63.20;;;;;;4994071;28;20784;-69
2022/07/22 11:29:05;;;;;;;14.45;8.30;;;25.70;63.00;;;;;;4975887;28;20436;-66
2022/07/22 11:31:31;;;;;;;13.97;8.60;;;25.70;63.80;;;;;;4974190;28;20608;-66
2022/07/22 11:34:12;;;;;;;14.07;8.10;;;25.80;63.20;;;;;;4973486;28;20774;-66
2022/07/22 11:36:43;;;;;;;12.20;8.30;;;25.80;62.90;;;;;;4973386;28;20543;-66
2022/07/22 11:39:10;;;;;;;10.07;8.63;;;25.80;63.20;;;;;;4972431;28;20470;-66
2022/07/22 11:41:36;;;;;;;14.77;8.18;;;25.80;63.10;;;;;;4974132;28;20783;-66
2022/07/22 11:44:03;;;;;;;11.55;8.50;;;25.80;63.00;;;;;;4974371;28;20887;-66
2022/07/22 11:46:41;;;;;;;11.02;8.18;;;25.80;63.00;;;;;;4974315;28;20399;-66
2022/07/22 11:49:09;;;;;;;9.68;8.52;;;25.80;62.90;;;;;;4974051;28;20409;-66
2022/07/22 11:51:36;;;;;;;8.90;8.00;;;25.80;63.10;;;;;;4972704;28;20396;-66
2022/07/22 11:54:04;;;;;;;11.48;8.25;;;25.80;62.80;;;;;;4974058;28;20419;-66
2022/07/22 11:56:30;;;;;;;10.10;8.35;;;25.90;63.10;;;;;;4974020;28;20407;-66
2022/07/22 11:58:56;;;;;;;10.32;8.65;;;25.90;63.30;;;;;;4973002;28;20404;-66
2022/07/22 12:01:27;;;;;;;9.80;8.82;;;25.80;62.80;;;;;;4972333;28;20407;-66
2022/07/22 12:03:59;;;;;;;9.93;8.90;;;25.90;63.30;;;;;;4972630;28;20917;-66
2022/07/22 12:06:27;;;;;;;10.20;9.10;;;25.90;63.20;;;;;;4974071;28;20391;-66
2022/07/22 12:08:54;;;;;;;9.40;8.45;;;25.80;63.20;;;;;;4972774;28;20938;-66
2022/07/22 12:11:22;;;;;;;9.30;8.40;;;25.90;63.30;;;;;;4971548;28;20830;-66
2022/07/22 12:13:50;;;;;;;9.57;8.60;;;25.80;63.10;;;;;;4973891;28;20443;-66
2022/07/22 12:16:21;;;;;;;9.32;8.43;;;25.90;63.10;;;;;;4973831;28;20403;-66
2022/07/22 12:18:56;;;;;;;10.02;9.02;;;25.90;63.00;;;;;;4973575;28;20443;-66
2022/07/22 12:21:23;;;;;;;9.50;8.40;;;25.90;63.10;;;;;;4973357;28;20459;-66
2022/07/22 12:23:55;;;;;;;9.75;8.70;;;25.90;63.20;;;;;;4972390;28;20385;-66
2022/07/22 12:26:38;;;;;;;9.53;8.63;;;25.90;62.70;;;;;;4973503;28;20419;-67
2022/07/22 12:29:30;;;;;;;9.48;8.57;;;25.90;62.70;;;;;;4973791;28;20396;-66
2022/07/22 12:32:00;;;;;;;10.02;9.02;;;25.90;62.10;;;;;;4972259;28;20424;-67
2022/07/22 12:34:30;;;;;;;9.75;8.85;;;25.90;62.00;;;;;;4971970;28;20457;-68
2022/07/22 12:36:57;;;;;;;9.70;8.70;;;25.90;62.00;;;;;;4973579;28;20396;-67
2022/07/22 12:39:22;;;;;;;9.05;8.25;;;25.90;61.90;;;;;;4973033;28;20407;-67
2022/07/22 12:41:51;;;;;;;10.20;9.20;;;25.90;61.80;;;;;;4973440;28;20595;-66